Time;durP1;ratioP1;P1;durP2;ratioP2;P2;SDS_P1;SDS_P2;PMS_P1;PMS_P2;Temp;Humidity;BMP_temperature;BMP_pressure;BME280_temperature;BME280_humidity;BME280_pressure;Samples;Min_cycle;Max_cycle;Signal;HPM_P1;HPM_P2
2023/04/25 00:01:05;;;;;;;6.43;2.22;;;7.10;99.90;;;;;;5126577;27;20039;-79
2023/04/25 00:03:31;;;;;;;4.45;1.80;;;7.00;99.90;;;;;;5092424;28;20407;-79
2023/04/25 00:06:03;;;;;;;6.75;2.50;;;7.10;99.90;;;;;;5093945;28;20118;-78
2023/04/25 00:08:30;;;;;;;5.45;1.90;;;7.00;99.90;;;;;;5075666;28;20036;-79
2023/04/25 00:10:56;;;;;;;7.70;3.08;;;6.90;99.90;;;;;;5093987;28;20040;-79
2023/04/25 00:13:22;;;;;;;7.00;2.55;;;6.90;99.90;;;;;;5093700;28;20040;-79
2023/04/25 00:15:48;;;;;;;5.65;2.90;;;6.90;99.90;;;;;;5093978;28;20036;-79
2023/04/25 00:18:15;;;;;;;6.03;2.50;;;6.90;99.90;;;;;;5075502;28;20569;-79
2023/04/25 00:20:46;;;;;;;7.65;2.45;;;6.70;99.90;;;;;;5092333;28;20028;-79
2023/04/25 00:23:17;;;;;;;7.05;2.72;;;6.80;99.90;;;;;;5093546;28;20036;-78
2023/04/25 00:25:46;;;;;;;5.25;2.33;;;6.70;99.90;;;;;;5126668;27;20042;-78
2023/04/25 00:28:13;;;;;;;5.17;2.10;;;6.60;99.90;;;;;;5092183;28;20105;-78
2023/04/25 00:30:39;;;;;;;8.65;3.08;;;6.60;99.90;;;;;;5092432;28;20317;-78
2023/04/25 00:33:05;;;;;;;5.88;2.40;;;6.70;99.90;;;;;;5092365;28;20126;-79
2023/04/25 00:35:31;;;;;;;6.50;2.65;;;6.70;99.90;;;;;;5092099;28;20079;-78
2023/04/25 00:37:56;;;;;;;5.13;2.30;;;6.60;99.90;;;;;;5093624;28;20111;-78
2023/04/25 00:40:22;;;;;;;4.80;2.20;;;6.60;99.90;;;;;;5092241;28;20472;-78
2023/04/25 00:42:49;;;;;;;6.53;2.20;;;6.60;99.90;;;;;;5093466;28;20032;-78
2023/04/25 00:45:15;;;;;;;4.95;2.15;;;6.60;99.90;;;;;;5093550;28;20127;-79
2023/04/25 00:47:41;;;;;;;4.85;2.20;;;6.60;99.90;;;;;;5091850;28;20040;-78
2023/04/25 00:50:08;;;;;;;5.50;2.28;;;6.60;99.90;;;;;;5075169;28;20058;-78
2023/04/25 00:52:34;;;;;;;6.78;2.50;;;6.60;99.90;;;;;;5075160;28;20085;-78
2023/04/25 00:55:00;;;;;;;7.50;2.55;;;6.60;99.90;;;;;;5091972;28;20044;-78
2023/04/25 00:57:26;;;;;;;6.45;2.20;;;6.50;99.90;;;;;;5092286;28;20462;-79
2023/04/25 00:59:53;;;;;;;5.93;2.47;;;6.50;99.90;;;;;;5094811;28;20119;-78
2023/04/25 01:02:20;;;;;;;5.90;2.67;;;6.60;99.90;;;;;;5097441;28;20180;-78
2023/04/25 01:04:47;;;;;;;6.10;2.42;;;6.50;99.90;;;;;;5097411;28;20054;-78
2023/04/25 01:07:13;;;;;;;5.95;2.63;;;6.50;99.90;;;;;;5095788;28;20051;-78
2023/04/25 01:09:39;;;;;;;5.68;2.30;;;6.50;99.90;;;;;;5079096;28;20040;-78
2023/04/25 01:12:05;;;;;;;7.10;2.28;;;6.50;99.90;;;;;;5095958;28;20040;-78
2023/04/25 01:14:30;;;;;;;5.88;2.40;;;6.60;99.90;;;;;;5095959;28;20495;-78
2023/04/25 01:16:57;;;;;;;6.28;2.10;;;6.40;99.90;;;;;;5095944;28;20040;-78
2023/04/25 01:19:24;;;;;;;5.78;2.20;;;6.40;99.90;;;;;;5097100;28;20128;-78
2023/04/25 01:21:50;;;;;;;6.25;2.60;;;6.40;99.90;;;;;;5078573;28;20089;-78
2023/04/25 01:24:16;;;;;;;6.65;2.60;;;6.30;99.90;;;;;;5096311;28;20123;-78
2023/04/25 01:26:49;;;;;;;6.82;2.45;;;6.30;99.90;;;;;;5095847;28;20044;-78
2023/04/25 01:29:18;;;;;;;6.57;2.47;;;6.40;99.90;;;;;;5095409;28;20047;-78
2023/04/25 01:31:44;;;;;;;5.93;3.03;;;6.40;99.90;;;;;;5078437;28;20074;-78
2023/04/25 01:34:10;;;;;;;5.45;2.13;;;6.30;99.90;;;;;;5078413;28;20039;-78
2023/04/25 01:36:36;;;;;;;5.35;2.45;;;6.40;99.90;;;;;;5078996;28;20422;-78
2023/04/25 01:39:02;;;;;;;6.57;2.70;;;6.30;99.90;;;;;;5095269;28;20048;-78
2023/04/25 01:41:28;;;;;;;7.07;2.28;;;6.30;99.90;;;;;;5095260;28;20098;-78
2023/04/25 01:43:53;;;;;;;6.70;2.38;;;6.20;99.90;;;;;;5095074;28;20381;-79
2023/04/25 01:46:19;;;;;;;5.13;2.30;;;6.20;99.90;;;;;;5095177;28;20071;-79
2023/04/25 01:48:45;;;;;;;5.80;1.95;;;6.10;99.90;;;;;;5095249;28;20366;-79
2023/04/25 01:51:11;;;;;;;5.63;2.20;;;6.00;99.90;;;;;;5078150;28;20491;-79
2023/04/25 01:53:37;;;;;;;5.30;2.60;;;6.00;99.90;;;;;;5095047;28;20047;-79
2023/04/25 01:56:04;;;;;;;5.55;2.15;;;6.00;99.90;;;;;;5096855;28;20393;-79
2023/04/25 01:58:29;;;;;;;6.25;2.20;;;5.80;99.90;;;;;;5096551;28;20040;-79
2023/04/25 02:00:55;;;;;;;6.60;3.15;;;5.80;99.90;;;;;;5096492;28;20039;-78
2023/04/25 02:03:20;;;;;;;4.63;2.20;;;5.80;99.90;;;;;;5094781;28;20032;-78
2023/04/25 02:05:46;;;;;;;7.28;2.47;;;5.90;99.90;;;;;;5094993;28;20445;-78
2023/04/25 02:08:12;;;;;;;5.88;2.30;;;5.80;99.90;;;;;;5096181;28;20039;-78
2023/04/25 02:10:38;;;;;;;6.82;2.53;;;5.90;99.90;;;;;;5095718;28;20143;-78
2023/04/25 02:13:05;;;;;;;6.25;2.80;;;5.90;99.90;;;;;;5096125;28;20036;-79
2023/04/25 02:15:31;;;;;;;5.72;2.25;;;5.80;99.90;;;;;;5096156;28;20441;-78
2023/04/25 02:17:57;;;;;;;7.15;2.38;;;5.80;99.90;;;;;;5094803;28;20052;-78
2023/04/25 02:20:24;;;;;;;6.82;2.40;;;5.80;99.90;;;;;;5096169;28;20487;-78
2023/04/25 02:22:50;;;;;;;6.32;2.60;;;5.90;99.90;;;;;;5095711;28;20127;-79
2023/04/25 02:25:17;;;;;;;5.18;2.20;;;5.80;99.90;;;;;;5095999;28;20063;-79
2023/04/25 02:27:43;;;;;;;6.95;2.63;;;5.90;99.90;;;;;;5094376;28;20461;-79
2023/04/25 02:30:09;;;;;;;6.68;2.20;;;5.90;99.90;;;;;;5094600;28;20047;-79
2023/04/25 02:32:35;;;;;;;6.05;2.20;;;5.80;99.90;;;;;;5095734;28;20532;-79
2023/04/25 02:35:04;;;;;;;6.82;1.95;;;5.80;99.90;;;;;;5094147;28;20453;-78
2023/04/25 02:37:30;;;;;;;5.82;2.05;;;5.80;99.90;;;;;;5095611;28;20054;-78
2023/04/25 02:39:56;;;;;;;4.10;2.30;;;5.80;99.90;;;;;;5093994;28;20420;-78
2023/04/25 02:42:22;;;;;;;5.70;1.90;;;5.80;99.90;;;;;;5094160;28;20040;-78
2023/04/25 02:44:47;;;;;;;5.75;1.90;;;5.70;99.90;;;;;;5093947;28;20043;-79
2023/04/25 02:47:13;;;;;;;5.13;2.10;;;5.80;99.90;;;;;;5094152;28;20047;-78
2023/04/25 02:49:39;;;;;;;4.63;2.22;;;5.70;99.90;;;;;;5077266;28;20028;-79
2023/04/25 02:52:05;;;;;;;4.88;2.00;;;5.80;99.90;;;;;;5095407;28;20484;-79
2023/04/25 02:54:31;;;;;;;5.88;2.28;;;5.70;99.90;;;;;;5095335;28;20115;-78
2023/04/25 02:56:57;;;;;;;5.70;2.28;;;5.80;99.90;;;;;;5095227;28;20039;-79
2023/04/25 02:59:22;;;;;;;5.55;2.03;;;5.70;99.90;;;;;;5093700;28;20117;-78
2023/04/25 03:01:48;;;;;;;4.88;2.25;;;5.80;99.90;;;;;;5094864;28;20043;-78
2023/04/25 03:04:14;;;;;;;7.35;2.30;;;5.80;99.90;;;;;;5093586;28;20036;-79
2023/04/25 03:06:39;;;;;;;7.15;2.33;;;5.70;99.90;;;;;;5093572;28;20040;-79
2023/04/25 03:09:05;;;;;;;4.60;2.38;;;5.70;99.90;;;;;;5093842;28;20043;-78
2023/04/25 03:11:30;;;;;;;6.32;1.92;;;5.70;99.90;;;;;;5093624;28;20043;-78
2023/04/25 03:13:56;;;;;;;4.88;1.77;;;5.80;99.90;;;;;;5093327;28;20044;-79
2023/04/25 03:16:22;;;;;;;4.10;1.80;;;5.80;99.90;;;;;;5093250;28;20051;-78
2023/04/25 03:18:49;;;;;;;5.57;2.30;;;5.80;99.90;;;;;;5093287;28;20044;-79
2023/04/25 03:21:15;;;;;;;5.82;2.00;;;5.70;99.90;;;;;;5094404;28;20086;-79
2023/04/25 03:23:40;;;;;;;5.80;1.98;;;5.80;99.90;;;;;;5075607;28;20068;-78
2023/04/25 03:26:06;;;;;;;4.57;2.05;;;5.70;99.90;;;;;;5094707;28;20043;-78
2023/04/25 03:28:32;;;;;;;4.45;2.15;;;5.70;99.90;;;;;;5094761;28;20032;-79
2023/04/25 03:30:57;;;;;;;5.70;2.00;;;5.70;99.90;;;;;;5093427;28;20044;-78
2023/04/25 03:33:23;;;;;;;8.23;2.25;;;5.70;99.90;;;;;;5093351;28;20071;-79
2023/04/25 03:35:49;;;;;;;4.88;2.35;;;5.70;99.90;;;;;;5093103;28;20074;-79
2023/04/25 03:38:15;;;;;;;7.53;1.80;;;5.70;99.90;;;;;;5094786;28;20047;-78
2023/04/25 03:40:41;;;;;;;4.75;2.00;;;5.70;99.90;;;;;;5094098;28;20055;-78
2023/04/25 03:43:07;;;;;;;5.78;2.20;;;5.70;99.90;;;;;;5094140;28;20056;-78
2023/04/25 03:45:32;;;;;;;6.85;2.47;;;5.70;99.90;;;;;;5076212;28;20034;-79
2023/04/25 03:47:58;;;;;;;4.10;2.13;;;5.70;99.90;;;;;;5092889;28;20545;-79
2023/04/25 03:50:24;;;;;;;5.40;2.08;;;5.70;99.90;;;;;;5093213;28;20119;-79
2023/04/25 03:52:49;;;;;;;5.95;1.77;;;5.80;99.90;;;;;;5094017;28;20040;-79
2023/04/25 03:55:15;;;;;;;5.20;1.98;;;5.80;99.90;;;;;;5126736;27;20036;-78
2023/04/25 03:57:41;;;;;;;6.07;1.90;;;5.80;99.90;;;;;;5092618;28;20079;-79
2023/04/25 04:00:07;;;;;;;4.47;1.80;;;5.80;99.90;;;;;;5092934;28;20047;-78
2023/04/25 04:02:34;;;;;;;5.72;1.90;;;5.70;99.90;;;;;;5092467;28;20416;-79
2023/04/25 04:05:00;;;;;;;4.97;2.20;;;5.80;99.90;;;;;;5094118;28;20119;-79
2023/04/25 04:07:26;;;;;;;4.53;1.92;;;5.70;99.90;;;;;;5094011;28;20111;-79
2023/04/25 04:09:51;;;;;;;6.38;2.10;;;5.70;99.90;;;;;;5093680;28;20482;-79
2023/04/25 04:12:17;;;;;;;4.18;1.77;;;5.80;99.90;;;;;;5093980;28;20570;-78
2023/04/25 04:14:43;;;;;;;6.20;2.25;;;5.70;99.90;;;;;;5092623;28;20506;-79
2023/04/25 04:17:08;;;;;;;4.82;2.00;;;5.80;99.90;;;;;;5094005;28;20495;-79
2023/04/25 04:19:34;;;;;;;4.22;1.58;;;5.70;99.90;;;;;;5093598;28;20495;-79
2023/04/25 04:21:59;;;;;;;5.78;1.90;;;5.70;99.90;;;;;;5075457;28;20043;-79
2023/04/25 04:24:25;;;;;;;3.97;1.58;;;5.70;99.90;;;;;;5075528;28;20089;-79
2023/04/25 04:26:51;;;;;;;4.28;1.92;;;5.80;99.90;;;;;;5092762;28;20047;-79
2023/04/25 04:29:20;;;;;;;6.55;1.70;;;5.80;99.90;;;;;;5092318;28;20172;-79
2023/04/25 04:31:52;;;;;;;5.95;1.88;;;5.80;99.90;;;;;;5093822;28;20075;-79
2023/04/25 04:34:18;;;;;;;4.15;2.25;;;5.70;99.90;;;;;;5093369;28;20043;-79
2023/04/25 04:36:47;;;;;;;4.40;1.70;;;5.70;99.90;;;;;;5093754;28;20032;-79
2023/04/25 04:39:13;;;;;;;4.80;1.75;;;5.60;99.90;;;;;;5075085;28;20135;-79
2023/04/25 04:41:39;;;;;;;5.63;1.80;;;5.60;99.90;;;;;;5092056;28;20131;-79
2023/04/25 04:44:06;;;;;;;4.82;1.85;;;5.50;99.90;;;;;;5092310;28;20119;-79
2023/04/25 04:46:37;;;;;;;4.45;2.03;;;5.40;99.90;;;;;;5091987;28;20088;-79
2023/04/25 04:49:05;;;;;;;5.07;1.55;;;5.40;99.90;;;;;;5092286;28;20040;-79
2023/04/25 04:51:31;;;;;;;3.33;1.50;;;5.40;99.90;;;;;;5091996;28;20101;-79
2023/04/25 04:53:58;;;;;;;6.00;1.92;;;5.40;99.90;;;;;;5093177;28;20434;-79
2023/04/25 04:56:25;;;;;;;3.78;1.50;;;5.40;99.90;;;;;;5092218;28;20048;-78
2023/04/25 04:58:52;;;;;;;3.72;1.60;;;5.40;99.90;;;;;;5093528;28;20068;-79
2023/04/25 05:01:18;;;;;;;3.80;1.70;;;5.40;99.90;;;;;;5126119;28;20043;-79
2023/04/25 05:03:43;;;;;;;2.90;1.50;;;5.40;99.90;;;;;;5093856;28;20115;-79
2023/04/25 05:06:09;;;;;;;4.15;1.20;;;5.40;99.90;;;;;;5091902;28;20108;-78
2023/04/25 05:08:35;;;;;;;3.13;1.35;;;5.30;99.90;;;;;;5093448;28;20118;-79
2023/04/25 05:11:01;;;;;;;3.35;1.50;;;5.30;99.90;;;;;;5093445;28;20430;-79
2023/04/25 05:13:27;;;;;;;3.78;1.23;;;5.30;99.90;;;;;;5093355;28;20032;-78
2023/04/25 05:15:52;;;;;;;3.38;1.55;;;5.20;99.90;;;;;;5091728;28;20047;-79
2023/04/25 05:18:18;;;;;;;2.47;1.17;;;5.30;99.90;;;;;;5091825;28;20353;-79
2023/04/25 05:20:43;;;;;;;3.67;1.60;;;5.20;99.90;;;;;;5091640;28;20036;-79
2023/04/25 05:23:09;;;;;;;3.30;1.40;;;5.30;99.90;;;;;;5091675;28;20040;-79
2023/04/25 05:25:35;;;;;;;3.92;1.75;;;5.30;99.90;;;;;;5092902;28;20048;-79
2023/04/25 05:28:00;;;;;;;3.97;2.28;;;5.30;99.90;;;;;;5093217;28;20032;-79
2023/04/25 05:30:26;;;;;;;4.07;1.35;;;5.30;99.90;;;;;;5091882;28;20127;-79
2023/04/25 05:32:52;;;;;;;2.72;1.20;;;5.30;99.90;;;;;;5093127;28;20036;-79
2023/04/25 05:35:17;;;;;;;3.42;1.27;;;5.40;99.90;;;;;;5093067;28;20165;-79
2023/04/25 05:37:43;;;;;;;3.42;1.40;;;5.50;99.90;;;;;;5093136;28;20047;-79
2023/04/25 05:40:09;;;;;;;3.20;1.42;;;5.50;99.90;;;;;;5092128;28;20050;-79
2023/04/25 05:42:35;;;;;;;5.50;1.48;;;5.50;99.90;;;;;;5093001;28;20329;-80
2023/04/25 05:45:00;;;;;;;5.45;1.52;;;5.60;99.90;;;;;;5093245;28;20040;-79
2023/04/25 05:47:26;;;;;;;5.00;1.92;;;5.70;99.90;;;;;;5095116;28;20043;-79
2023/04/25 05:49:52;;;;;;;3.10;1.40;;;5.70;99.90;;;;;;5095041;28;20043;-80
2023/04/25 05:52:17;;;;;;;5.43;1.73;;;5.70;99.90;;;;;;5078505;28;20055;-79
2023/04/25 05:54:43;;;;;;;3.65;1.50;;;5.70;99.90;;;;;;5095082;28;20044;-84
2023/04/25 05:57:08;;;;;;;2.10;1.00;;;5.70;99.90;;;;;;5078141;28;20036;-83
2023/04/25 05:59:34;;;;;;;2.13;1.27;;;5.80;99.90;;;;;;5096060;28;20036;-82
2023/04/25 06:02:00;;;;;;;3.38;1.25;;;5.80;99.90;;;;;;5096388;28;20111;-80
2023/04/25 06:04:26;;;;;;;4.13;1.30;;;5.80;99.90;;;;;;5096029;28;20466;-79
2023/04/25 06:06:51;;;;;;;2.90;1.13;;;5.80;99.90;;;;;;5096381;28;20036;-78
2023/04/25 06:09:17;;;;;;;4.05;1.75;;;5.90;99.90;;;;;;5094983;28;20042;-82
2023/04/25 06:11:42;;;;;;;4.03;1.75;;;5.90;99.90;;;;;;5094680;28;20032;-80
2023/04/25 06:14:08;;;;;;;4.03;1.40;;;6.00;99.90;;;;;;5077697;28;20135;-81
2023/04/25 06:16:34;;;;;;;3.55;1.30;;;6.00;99.90;;;;;;5077692;28;20058;-82
2023/04/25 06:18:59;;;;;;;5.55;1.58;;;6.10;99.90;;;;;;5094811;28;20047;-81
2023/04/25 06:21:25;;;;;;;3.50;1.50;;;6.10;99.90;;;;;;5094438;28;20036;-84
2023/04/25 06:23:51;;;;;;;5.38;1.80;;;6.20;99.90;;;;;;5128453;27;20120;-83
2023/04/25 06:26:16;;;;;;;3.72;1.63;;;6.20;99.90;;;;;;5094732;28;20040;-82
2023/04/25 06:28:42;;;;;;;4.32;1.50;;;6.20;99.90;;;;;;5094341;28;20072;-81
2023/04/25 06:31:08;;;;;;;3.67;1.58;;;6.30;99.90;;;;;;5094328;28;20084;-80
2023/04/25 06:33:33;;;;;;;2.85;1.52;;;6.40;99.90;;;;;;5094551;28;20082;-77
2023/04/25 06:35:59;;;;;;;3.88;1.48;;;6.40;99.90;;;;;;5095350;28;20036;-80
2023/04/25 06:38:24;;;;;;;4.50;1.75;;;6.50;99.90;;;;;;5095632;28;20040;-78
2023/04/25 06:40:51;;;;;;;4.22;1.52;;;6.50;99.90;;;;;;5093955;28;20064;-79
2023/04/25 06:43:16;;;;;;;2.92;1.30;;;6.60;99.90;;;;;;5095644;28;20040;-88
2023/04/25 06:45:42;;;;;;;2.55;1.73;;;6.60;99.90;;;;;;5095828;28;20032;-87
2023/04/25 06:48:07;;;;;;;5.00;1.60;;;6.70;99.90;;;;;;5077765;28;20074;-88
2023/04/25 06:50:34;;;;;;;2.83;1.23;;;6.80;99.90;;;;;;5094914;28;20052;-88
2023/04/25 06:53:01;;;;;;;4.53;1.63;;;6.90;99.90;;;;;;5094301;28;20392;-82
2023/04/25 06:55:27;;;;;;;4.35;1.48;;;6.90;99.90;;;;;;5095319;28;20047;-82
2023/04/25 06:57:52;;;;;;;6.88;2.08;;;7.00;99.90;;;;;;5092575;28;20040;-81
2023/04/25 07:00:18;;;;;;;4.13;1.60;;;7.10;99.90;;;;;;5094956;28;20043;-80
2023/04/25 07:02:44;;;;;;;4.40;1.75;;;7.10;99.90;;;;;;5093554;28;20175;-83
2023/04/25 07:05:10;;;;;;;3.95;1.60;;;7.20;99.90;;;;;;5093971;28;20463;-80
2023/04/25 07:07:35;;;;;;;4.22;1.40;;;7.20;99.90;;;;;;5093838;28;20028;-82
2023/04/25 07:10:01;;;;;;;3.97;1.25;;;7.30;99.90;;;;;;5093510;28;20541;-81
2023/04/25 07:12:26;;;;;;;3.47;1.55;;;7.50;99.90;;;;;;5093610;28;20127;-86
2023/04/25 07:14:52;;;;;;;3.03;1.30;;;7.60;99.90;;;;;;5094772;28;20369;-81
2023/04/25 07:17:18;;;;;;;2.47;1.15;;;7.70;99.90;;;;;;5093437;28;20040;-80
2023/04/25 07:19:43;;;;;;;4.25;1.40;;;7.90;99.90;;;;;;5076503;28;20036;-82
2023/04/25 07:22:09;;;;;;;3.83;1.50;;;8.00;99.90;;;;;;5094784;28;20123;-83
2023/04/25 07:24:34;;;;;;;4.63;1.60;;;8.00;99.90;;;;;;5127677;27;20503;-83
2023/04/25 07:27:01;;;;;;;3.00;1.10;;;8.10;99.90;;;;;;5093217;28;20040;-83
2023/04/25 07:29:27;;;;;;;3.85;1.52;;;7.90;99.90;;;;;;5094342;28;20564;-81
2023/04/25 07:31:53;;;;;;;3.97;1.25;;;7.70;99.90;;;;;;5094604;28;20081;-81
2023/04/25 07:34:19;;;;;;;2.67;1.40;;;7.60;99.90;;;;;;5093076;28;20044;-81
2023/04/25 07:36:44;;;;;;;2.22;1.20;;;7.50;99.90;;;;;;5127199;27;20055;-81
2023/04/25 07:39:10;;;;;;;3.55;1.30;;;7.40;99.90;;;;;;5094545;28;20063;-80
2023/04/25 07:41:36;;;;;;;3.78;1.80;;;7.60;99.90;;;;;;5076047;28;20078;-83
2023/04/25 07:44:02;;;;;;;2.60;1.40;;;7.60;99.90;;;;;;5093478;28;20075;-83
2023/04/25 07:46:27;;;;;;;3.35;1.33;;;7.70;99.90;;;;;;5093211;28;20157;-83
2023/04/25 07:48:53;;;;;;;2.38;1.13;;;7.80;99.90;;;;;;5126924;27;20104;-87
2023/04/25 07:51:19;;;;;;;2.83;1.05;;;7.80;99.90;;;;;;5093038;28;20071;-82
2023/04/25 07:53:46;;;;;;;2.80;1.10;;;7.80;99.90;;;;;;5126851;27;20047;-79
2023/04/25 07:56:11;;;;;;;1.95;1.08;;;7.80;99.90;;;;;;5126865;27;20089;-79
2023/04/25 07:58:37;;;;;;;5.05;1.27;;;7.80;99.90;;;;;;5092639;28;20035;-75
2023/04/25 08:01:03;;;;;;;3.45;1.13;;;7.70;99.90;;;;;;5092611;28;20044;-76
2023/04/25 08:03:29;;;;;;;1.77;0.90;;;7.90;99.90;;;;;;5094059;28;20044;-75
2023/04/25 08:05:55;;;;;;;2.08;1.00;;;8.00;99.90;;;;;;5094055;28;20032;-73
2023/04/25 08:08:21;;;;;;;2.83;0.98;;;7.90;99.90;;;;;;5093554;28;20036;-80
2023/04/25 08:10:48;;;;;;;3.25;1.20;;;8.00;99.90;;;;;;5075511;28;20093;-80
2023/04/25 08:13:13;;;;;;;3.83;1.13;;;8.10;99.90;;;;;;5093877;28;20048;-81
2023/04/25 08:15:40;;;;;;;2.25;1.10;;;8.20;99.90;;;;;;5092363;28;20044;-81
2023/04/25 08:18:05;;;;;;;2.33;1.00;;;8.20;99.90;;;;;;5092520;28;20041;-81
2023/04/25 08:20:31;;;;;;;5.07;1.25;;;8.40;99.90;;;;;;5075439;28;20089;-81
2023/04/25 08:22:56;;;;;;;3.58;1.00;;;8.40;99.90;;;;;;5092247;28;20404;-80
2023/04/25 08:25:22;;;;;;;2.95;0.95;;;8.30;99.90;;;;;;5093830;28;20043;-80
2023/04/25 08:27:48;;;;;;;3.67;1.27;;;8.30;99.90;;;;;;5092430;28;20452;-81
2023/04/25 08:30:14;;;;;;;2.47;0.90;;;8.20;99.90;;;;;;5093709;28;20046;-80
2023/04/25 08:32:39;;;;;;;1.48;0.80;;;8.20;99.90;;;;;;5092215;28;20044;-80
2023/04/25 08:35:05;;;;;;;2.88;1.23;;;8.10;99.90;;;;;;5093673;28;20032;-80
2023/04/25 08:37:31;;;;;;;3.10;1.10;;;8.20;99.90;;;;;;5092150;28;20047;-80
2023/04/25 08:39:57;;;;;;;1.92;1.10;;;8.40;99.90;;;;;;5075184;28;20052;-80
2023/04/25 08:42:24;;;;;;;1.42;0.80;;;8.40;99.90;;;;;;5092401;28;20109;-80
2023/04/25 08:44:52;;;;;;;1.48;0.95;;;8.30;99.90;;;;;;5092312;28;20400;-80
2023/04/25 08:47:22;;;;;;;3.10;1.02;;;8.40;99.90;;;;;;5093591;28;20079;-82
2023/04/25 08:49:49;;;;;;;2.90;1.13;;;8.40;99.90;;;;;;5126063;28;20119;-82
2023/04/25 08:52:20;;;;;;;4.45;1.30;;;8.30;99.90;;;;;;5092255;28;20400;-81
2023/04/25 08:54:48;;;;;;;1.70;0.80;;;8.40;99.90;;;;;;5092304;28;20039;-81
2023/04/25 08:57:15;;;;;;;2.30;1.20;;;8.50;99.90;;;;;;5093197;28;20137;-81
2023/04/25 08:59:45;;;;;;;3.53;1.50;;;8.50;99.90;;;;;;5092245;28;20072;-81
2023/04/25 09:02:15;;;;;;;2.42;1.30;;;8.60;99.90;;;;;;5091910;28;20058;-81
2023/04/25 09:04:43;;;;;;;1.17;0.90;;;8.90;99.90;;;;;;5091945;28;20055;-81
2023/04/25 09:07:09;;;;;;;1.23;0.70;;;9.00;99.90;;;;;;5093434;28;20036;-81
2023/04/25 09:09:35;;;;;;;1.52;0.63;;;8.80;99.90;;;;;;5091951;28;20377;-81
2023/04/25 09:12:01;;;;;;;1.38;0.80;;;8.60;99.90;;;;;;5093137;28;20040;-79
2023/04/25 09:14:27;;;;;;;2.67;0.93;;;8.30;99.90;;;;;;5091903;28;20089;-78
2023/04/25 09:16:56;;;;;;;1.67;0.70;;;8.00;99.90;;;;;;5092132;28;20044;-77
2023/04/25 09:19:34;;;;;;;1.27;0.77;;;7.80;99.90;;;;;;5091809;28;20044;-79
2023/04/25 09:22:04;;;;;;;2.25;0.80;;;7.70;99.90;;;;;;5095151;28;20047;-75
2023/04/25 09:24:38;;;;;;;1.45;0.80;;;7.30;99.90;;;;;;5095981;28;20400;-74
2023/04/25 09:27:05;;;;;;;1.73;0.80;;;7.30;99.90;;;;;;5097167;28;20040;-74
2023/04/25 09:29:58;;;;;;;1.65;0.70;;;7.50;99.90;;;;;;5095930;28;20075;-73
2023/04/25 09:32:24;;;;;;;1.48;0.80;;;7.70;99.90;;;;;;5097160;28;20438;-73
2023/04/25 09:34:53;;;;;;;1.42;0.80;;;7.80;99.90;;;;;;5097274;28;20040;-74
2023/04/25 09:37:21;;;;;;;1.60;0.90;;;8.00;99.90;;;;;;5096952;28;20076;-74
2023/04/25 09:39:59;;;;;;;1.55;0.88;;;7.70;99.90;;;;;;5095179;28;20070;-74
2023/04/25 09:42:31;;;;;;;1.45;0.90;;;7.60;99.90;;;;;;5095317;28;20119;-74
2023/04/25 09:44:57;;;;;;;1.02;0.70;;;7.70;99.90;;;;;;5095184;28;20072;-74
2023/04/25 09:47:25;;;;;;;1.95;0.95;;;7.80;99.90;;;;;;5095268;28;20036;-74
2023/04/25 09:49:52;;;;;;;1.52;0.70;;;8.00;99.90;;;;;;5095238;28;20036;-75
2023/04/25 09:52:20;;;;;;;1.55;1.10;;;8.00;99.90;;;;;;5078194;28;20075;-75
2023/04/25 09:54:46;;;;;;;2.55;0.90;;;8.00;99.90;;;;;;5096399;28;20123;-74
2023/04/25 09:57:19;;;;;;;1.67;1.00;;;8.10;99.90;;;;;;5096371;28;20503;-75
2023/04/25 09:59:51;;;;;;;2.00;1.00;;;8.10;99.90;;;;;;5095036;28;20043;-74
2023/04/25 10:02:20;;;;;;;1.42;0.75;;;8.20;99.90;;;;;;5094900;28;20048;-74
2023/04/25 10:04:49;;;;;;;1.92;0.80;;;8.30;99.90;;;;;;5094930;28;20051;-74
2023/04/25 10:07:14;;;;;;;1.45;0.80;;;8.50;99.90;;;;;;5094858;28;20039;-76
2023/04/25 10:09:41;;;;;;;2.08;0.90;;;8.60;99.90;;;;;;5096826;28;20043;-76
2023/04/25 10:12:08;;;;;;;2.60;1.00;;;8.80;99.90;;;;;;5096328;28;20055;-75
2023/04/25 10:14:34;;;;;;;2.42;1.10;;;9.10;99.90;;;;;;5094655;28;20063;-77
2023/04/25 10:17:01;;;;;;;3.35;1.85;;;9.20;99.90;;;;;;5095802;28;20468;-78
2023/04/25 10:19:28;;;;;;;1.42;0.90;;;9.20;99.90;;;;;;5096110;28;20115;-77
2023/04/25 10:22:18;;;;;;;2.50;0.90;;;9.10;99.90;;;;;;5096066;28;20056;-77
2023/04/25 10:24:46;;;;;;;1.52;0.90;;;8.20;99.90;;;;;;5095703;28;20436;-78
2023/04/25 10:27:12;;;;;;;1.08;0.98;;;7.10;99.90;;;;;;5094420;28;20048;-78
2023/04/25 10:29:38;;;;;;;2.28;0.80;;;6.80;99.90;;;;;;5128417;27;20079;-76
2023/04/25 10:32:04;;;;;;;1.40;0.73;;;6.50;99.90;;;;;;5095537;28;20145;-76
2023/04/25 10:34:42;;;;;;;3.13;0.90;;;6.40;99.90;;;;;;5095629;28;20480;-74
2023/04/25 10:37:10;;;;;;;1.83;0.82;;;6.50;99.90;;;;;;5094192;28;20052;-75
2023/04/25 10:39:37;;;;;;;1.27;0.80;;;6.60;99.90;;;;;;5094003;28;20123;-77
2023/04/25 10:42:03;;;;;;;1.80;0.93;;;6.70;99.90;;;;;;5094127;28;20028;-78
2023/04/25 10:44:29;;;;;;;1.73;1.17;;;6.70;99.90;;;;;;5093974;28;20101;-77
2023/04/25 10:47:00;;;;;;;3.05;1.10;;;6.90;99.90;;;;;;5095571;28;20118;-78
2023/04/25 10:49:32;;;;;;;2.25;0.98;;;7.00;99.90;;;;;;5094412;28;20472;-78
2023/04/25 10:52:18;;;;;;;2.75;1.42;;;7.10;99.90;;;;;;5095437;28;20043;-78
2023/04/25 10:54:54;;;;;;;3.35;0.90;;;7.40;99.90;;;;;;5095177;28;20044;-78
2023/04/25 10:57:37;;;;;;;2.30;0.90;;;7.60;99.90;;;;;;5093927;28;20062;-79
2023/04/25 11:00:10;;;;;;;3.17;1.20;;;7.90;99.90;;;;;;5077312;28;20071;-76
2023/04/25 11:02:47;;;;;;;3.13;1.00;;;8.20;99.90;;;;;;5095098;28;20093;-77
2023/04/25 11:05:37;;;;;;;2.55;1.10;;;8.50;99.90;;;;;;5076789;28;20043;-77
2023/04/25 11:08:06;;;;;;;;;;;8.80;99.90;;;;;;5089241;28;20039;-77
2023/04/25 11:10:36;;;;;;;2.63;1.13;;;9.10;99.90;;;;;;5093834;28;20338;-76
2023/04/25 11:13:02;;;;;;;1.88;1.00;;;9.10;99.90;;;;;;5093518;28;20040;-76
2023/04/25 11:15:27;;;;;;;2.05;1.20;;;9.20;99.90;;;;;;5093455;28;20051;-77
2023/04/25 11:17:59;;;;;;;2.95;1.10;;;9.30;99.90;;;;;;5076604;28;20084;-79
2023/04/25 11:20:27;;;;;;;2.67;0.80;;;9.40;99.90;;;;;;5076909;28;20043;-77
2023/04/25 11:22:53;;;;;;;2.05;1.20;;;9.50;99.90;;;;;;5076608;28;20036;-77
2023/04/25 11:25:19;;;;;;;3.22;1.15;;;9.70;99.90;;;;;;5093435;28;20416;-78
2023/04/25 11:27:53;;;;;;;2.92;1.10;;;9.70;99.90;;;;;;5076357;28;20067;-78
2023/04/25 11:30:20;;;;;;;2.50;1.10;;;9.30;99.90;;;;;;5093681;28;20071;-77
2023/04/25 11:32:46;;;;;;;2.47;1.00;;;9.10;99.90;;;;;;5093131;28;20078;-78
2023/04/25 11:35:12;;;;;;;2.40;1.13;;;8.80;99.90;;;;;;5076193;28;20071;-78
2023/04/25 11:37:41;;;;;;;2.53;1.05;;;9.10;99.90;;;;;;5093415;28;20044;-77
2023/04/25 11:40:09;;;;;;;2.57;1.20;;;9.40;99.90;;;;;;5076259;28;20060;-78
2023/04/25 11:42:43;;;;;;;2.22;0.98;;;9.50;99.90;;;;;;5092870;28;20082;-78
2023/04/25 11:45:09;;;;;;;1.60;0.77;;;9.40;99.90;;;;;;5092872;28;20127;-79
2023/04/25 11:47:35;;;;;;;2.83;1.05;;;8.30;99.90;;;;;;5093092;28;20072;-78
2023/04/25 11:50:07;;;;;;;1.42;0.90;;;7.50;99.90;;;;;;5075809;28;20092;-78
2023/04/25 11:52:51;;;;;;;1.00;0.70;;;6.50;99.90;;;;;;5092757;28;20039;-79
2023/04/25 11:55:19;;;;;;;2.17;1.10;;;6.10;99.90;;;;;;5093809;28;20392;-78
2023/04/25 11:57:48;;;;;;;1.80;0.75;;;6.00;99.90;;;;;;5092958;28;20071;-78
2023/04/25 12:00:21;;;;;;;2.22;1.20;;;6.30;99.90;;;;;;5094178;28;20115;-78
2023/04/25 12:02:52;;;;;;;2.58;1.30;;;6.50;99.90;;;;;;5091931;28;20108;-80
2023/04/25 12:05:17;;;;;;;3.33;1.23;;;6.80;99.90;;;;;;5092598;28;20460;-79
2023/04/25 12:07:44;;;;;;;2.40;1.23;;;7.20;99.90;;;;;;5092848;28;20028;-79
2023/04/25 12:10:15;;;;;;;2.00;1.10;;;7.50;99.90;;;;;;5093986;28;20044;-78
2023/04/25 12:12:46;;;;;;;3.05;1.40;;;7.90;99.90;;;;;;5092413;28;20050;-77
2023/04/25 12:15:19;;;;;;;3.90;1.40;;;8.30;99.90;;;;;;5092595;28;20055;-77
2023/04/25 12:17:46;;;;;;;2.42;1.23;;;8.50;99.90;;;;;;5126799;27;20088;-78
2023/04/25 12:20:17;;;;;;;2.08;1.00;;;8.80;99.90;;;;;;5075482;28;20051;-78
2023/04/25 12:22:46;;;;;;;2.65;1.20;;;9.10;99.90;;;;;;5092197;28;20082;-78
2023/04/25 12:25:13;;;;;;;2.67;1.30;;;9.40;99.90;;;;;;5092449;28;20044;-79
2023/04/25 12:27:41;;;;;;;2.15;1.00;;;9.40;99.90;;;;;;5092543;28;20036;-78
2023/04/25 12:30:10;;;;;;;1.77;0.80;;;9.30;99.90;;;;;;5092681;28;20046;-77
2023/04/25 12:32:37;;;;;;;2.20;1.17;;;9.20;99.90;;;;;;5092541;28;20044;-78
2023/04/25 12:35:04;;;;;;;1.65;0.95;;;9.40;99.90;;;;;;5092518;28;20085;-78
2023/04/25 12:37:30;;;;;;;1.42;1.20;;;9.60;99.90;;;;;;5075281;28;20040;-78
2023/04/25 12:39:56;;;;;;;1.83;0.90;;;9.70;99.90;;;;;;5093423;28;20048;-77
2023/04/25 12:42:21;;;;;;;2.05;0.80;;;9.80;99.90;;;;;;5093545;28;20130;-77
2023/04/25 12:44:47;;;;;;;2.10;1.08;;;9.90;99.90;;;;;;5092744;28;20040;-77
2023/04/25 12:47:13;;;;;;;1.35;0.80;;;10.00;99.90;;;;;;5092352;28;20384;-77
2023/04/25 12:49:39;;;;;;;2.63;0.90;;;10.20;99.90;;;;;;5075512;28;20392;-79
2023/04/25 12:52:04;;;;;;;1.58;0.80;;;10.10;99.90;;;;;;5075222;28;20028;-78
2023/04/25 12:54:31;;;;;;;2.22;0.88;;;10.50;99.90;;;;;;5093277;28;20044;-78
2023/04/25 12:56:57;;;;;;;0.93;0.70;;;10.60;99.90;;;;;;5096403;28;20051;-79